Nearby METAR Reports

 

KMLI - Moline/Quad City, Illinois, USA
Distance from station: ENE 4mi, 7km
Updated: 09/20/2020 1:52am
Clear
Clear
 Wind from calm
Wind: Calm
Temperature: 46°F , 8°C
Dew Point: 43°F , 6°C
Humidity: 87%
Barometer: 30.31 inHg , 1026.4 hPa
Clouds: Clear
Visibility: 10 miles , 16 km
2020/09/20 06:52 KMLI 200652Z AUTO 00000KT 10SM CLR 08/06 A3031 RMK AO2 SLP266 T00830056
KDVN - Davenport/Quad C, Iowa, USA
Distance from station: N 14mi, 22km
Updated: 09/20/2020 1:52am
Clear
Clear
 Wind from ESE
Wind: ESE 6 mph , 9 km/h
Temperature: 48°F , 9°C
Wind Chill: 45°F , 7°C
Dew Point: 43°F , 6°C
Humidity: 82%
Barometer: 30.33 inHg , 1027.1 hPa
Clouds: Clear
Visibility: 10 miles , 16 km
2020/09/20 06:52 KDVN 200652Z AUTO 12005KT 10SM CLR 09/06 A3033 RMK AO2 SLP268 T00940056
 
KMUT - Muscatine, Iowa, USA
Distance from station: W 29mi, 47km
Updated: 09/20/2020 2:15am
Clear
Clear
 Wind from calm
Wind: Calm
Temperature: 46°F , 8°C
Dew Point: 46°F , 8°C
Humidity: 100%
Barometer: 30.32 inHg , 1026.8 hPa
Clouds: Clear
Visibility: 10 miles , 16 km
2020/09/20 07:15 KMUT 200715Z AUTO 00000KT 10SM CLR 08/08 A3032 RMK AO2
KCWI - Clinton Muni, Iowa, USA
Distance from station: NNE 31mi, 50km
Updated: 09/20/2020 1:56am
Clear
Clear
 Wind from calm
Wind: Calm
Temperature: 46°F , 8°C
Dew Point: 43°F , 6°C
Humidity: 87%
Barometer: 30.33 inHg , 1027.1 hPa
Clouds: Clear
Visibility: 10 miles , 16 km
2020/09/20 06:56 KCWI 200656Z AUTO 00000KT 10SM CLR 08/06 A3033 RMK AO2 SLP275 T00830061
 
KGBG - Galesburg, Illinois, USA
Distance from station: SSE 35mi, 56km
Updated: 09/20/2020 1:55am
Clear
Clear
 Wind from calm
Wind: Calm
Temperature: 50°F , 10°C
Dew Point: 41°F , 5°C
Humidity: 71%
Barometer: 30.32 inHg , 1026.8 hPa
Clouds: Clear
Visibility: 10 miles , 16 km
2020/09/20 06:55 KGBG 200655Z AUTO 00000KT 10SM CLR 10/05 A3032 RMK AO2 T01000047
KSFY - Savanna/Tritown, Illinois, USA
Distance from station: NNE 50mi, 80km
Updated: 09/20/2020 1:56am

 
2020/09/20 06:56 KSFY 200656Z AUTO RMK AO2 PWINO TSNO